Time;durP1;ratioP1;P1;durP2;ratioP2;P2;SDS_P1;SDS_P2;PMS_P1;PMS_P2;Temp;Humidity;BMP_temperature;BMP_pressure;BME280_temperature;BME280_humidity;BME280_pressure;Samples;Min_cycle;Max_cycle;Signal;HPM_P1;HPM_P2
2023/08/28 00:03:20;;;;;;;0.40;0.40;;;;;16.50;95944.00;;;;8248973;28;20240;-65
2023/08/28 00:07:25;;;;;;;0.30;0.30;;;;;16.50;95940.00;;;;8252052;28;20774;-65
2023/08/28 00:11:32;;;;;;;0.30;0.30;;;;;16.50;95933.00;;;;8249815;28;20195;-65
2023/08/28 00:15:38;;;;;;;0.30;0.30;;;;;16.50;95930.00;;;;8255561;28;20627;-65
2023/08/28 00:19:43;;;;;;;0.30;0.30;;;;;16.50;95918.00;;;;8252929;28;20337;-65
2023/08/28 00:23:46;;;;;;;0.40;0.40;;;;;16.50;95917.00;;;;8248476;28;21095;-65
2023/08/28 00:27:53;;;;;;;0.40;0.40;;;;;16.50;95909.00;;;;8253018;28;20277;-66
2023/08/28 00:31:56;;;;;;;0.40;0.40;;;;;16.40;95912.00;;;;8240663;28;20323;-66
2023/08/28 00:36:00;;;;;;;0.30;0.30;;;;;16.40;95906.00;;;;8263954;28;20250;-65
2023/08/28 00:40:05;;;;;;;0.40;0.40;;;;;16.40;95912.00;;;;8245776;28;20249;-65
2023/08/28 00:44:10;;;;;;;0.30;0.30;;;;;16.40;95899.00;;;;8248921;28;20966;-65
2023/08/28 00:48:16;;;;;;;0.40;0.40;;;;;16.30;95889.00;;;;8250549;28;20200;-65
2023/08/28 00:52:21;;;;;;;0.30;0.30;;;;;16.40;95883.00;;;;8243631;28;20205;-65
2023/08/28 00:56:25;;;;;;;0.73;0.73;;;;;16.30;95876.00;;;;8237314;28;20209;-65
2023/08/28 01:00:33;;;;;;;0.32;0.32;;;;;16.30;95885.00;;;;8242714;28;20635;-65
2023/08/28 01:04:39;;;;;;;0.40;0.40;;;;;16.30;95876.00;;;;8243530;28;20317;-65
2023/08/28 01:08:55;;;;;;;0.30;0.30;;;;;16.30;95867.00;;;;8248755;28;20207;-65
2023/08/28 01:13:08;;;;;;;0.40;0.40;;;;;16.30;95880.00;;;;8239002;28;20924;-65
2023/08/28 01:17:14;;;;;;;0.32;0.32;;;;;16.30;95885.00;;;;8239921;28;20234;-65
2023/08/28 01:21:19;;;;;;;0.30;0.30;;;;;16.20;95879.00;;;;8244196;28;20277;-65
2023/08/28 01:25:30;;;;;;;0.40;0.40;;;;;16.20;95892.00;;;;8247180;28;20198;-65
2023/08/28 01:29:36;;;;;;;0.40;0.40;;;;;16.20;95890.00;;;;8256975;28;20210;-65
2023/08/28 01:33:42;;;;;;;0.30;0.30;;;;;16.20;95895.00;;;;8245443;28;20245;-66
2023/08/28 01:38:00;;;;;;;0.30;0.30;;;;;16.20;95907.00;;;;8252305;28;20226;-65
2023/08/28 01:42:09;;;;;;;0.40;0.40;;;;;16.20;95898.00;;;;8249419;28;20206;-65
2023/08/28 01:46:16;;;;;;;0.30;0.30;;;;;16.20;95901.00;;;;8241448;28;20658;-65
2023/08/28 01:50:20;;;;;;;0.30;0.30;;;;;16.20;95900.00;;;;8248237;28;20252;-65
2023/08/28 01:54:25;;;;;;;0.30;0.30;;;;;16.20;95904.00;;;;8249115;28;20296;-65
2023/08/28 01:58:33;;;;;;;0.30;0.30;;;;;16.30;95913.00;;;;8250028;28;20653;-66
2023/08/28 02:02:36;;;;;;;0.30;0.30;;;;;16.30;95908.00;;;;8240972;28;20951;-66
2023/08/28 02:06:40;;;;;;;0.40;0.40;;;;;16.30;95912.00;;;;8240239;28;20204;-66
2023/08/28 02:10:43;;;;;;;0.30;0.30;;;;;16.30;95917.00;;;;8241099;28;20560;-66
2023/08/28 02:14:49;;;;;;;0.30;0.30;;;;;16.30;95923.00;;;;8246772;28;20198;-66
2023/08/28 02:18:54;;;;;;;0.30;0.30;;;;;16.30;95913.00;;;;8247315;28;20245;-66
2023/08/28 02:22:57;;;;;;;0.40;0.40;;;;;16.30;95904.00;;;;8247209;28;20199;-65
2023/08/28 02:27:01;;;;;;;0.35;0.35;;;;;16.30;95900.00;;;;8246040;28;20210;-65
2023/08/28 02:31:05;;;;;;;0.40;0.40;;;;;16.30;95899.00;;;;8243857;28;20202;-65
2023/08/28 02:35:11;;;;;;;0.30;0.30;;;;;16.20;95887.00;;;;8240408;28;20204;-65
2023/08/28 02:39:15;;;;;;;0.30;0.30;;;;;16.20;95888.00;;;;8246878;28;20232;-65
2023/08/28 02:43:18;;;;;;;0.40;0.40;;;;;16.20;95885.00;;;;8244801;28;20623;-65
2023/08/28 02:47:23;;;;;;;0.30;0.30;;;;;16.20;95871.00;;;;8241794;28;20313;-65
2023/08/28 02:51:27;;;;;;;0.40;0.40;;;;;16.20;95856.00;;;;8242417;28;20202;-65
2023/08/28 02:55:31;;;;;;;0.40;0.40;;;;;16.20;95856.00;;;;8256577;28;20290;-64
2023/08/28 02:59:34;;;;;;;0.40;0.40;;;;;16.20;95845.00;;;;8243522;28;20798;-64
2023/08/28 03:03:40;;;;;;;0.30;0.30;;;;;16.20;95830.00;;;;8272618;22;20242;-65
2023/08/28 03:07:44;;;;;;;0.30;0.30;;;;;16.20;95821.00;;;;8249716;28;20199;-64
2023/08/28 03:11:47;;;;;;;0.40;0.40;;;;;16.20;95818.00;;;;8246573;28;20962;-64
2023/08/28 03:15:52;;;;;;;0.30;0.30;;;;;16.20;95817.00;;;;8257807;28;20256;-64
2023/08/28 03:20:00;;;;;;;0.30;0.30;;;;;16.10;95814.00;;;;8251653;28;20234;-64
2023/08/28 03:24:06;;;;;;;0.30;0.30;;;;;16.10;95799.00;;;;8254707;28;20263;-65
2023/08/28 03:28:12;;;;;;;0.30;0.30;;;;;16.10;95806.00;;;;8251811;28;20572;-65
2023/08/28 03:32:17;;;;;;;0.30;0.30;;;;;16.10;95800.00;;;;8250509;28;20195;-65
2023/08/28 03:36:22;;;;;;;0.30;0.30;;;;;16.10;95795.00;;;;8251862;28;20364;-65
2023/08/28 03:40:25;;;;;;;0.30;0.30;;;;;16.00;95798.00;;;;8251832;28;20230;-65
2023/08/28 03:44:30;;;;;;;0.30;0.30;;;;;16.00;95806.00;;;;8251426;28;20282;-65
2023/08/28 03:48:40;;;;;;;0.30;0.30;;;;;16.10;95803.00;;;;8248076;28;20294;-65
2023/08/28 03:52:44;;;;;;;0.38;0.38;;;;;16.10;95808.00;;;;8251776;28;20223;-66
2023/08/28 03:56:50;;;;;;;0.30;0.30;;;;;16.10;95818.00;;;;8246658;28;20195;-65
2023/08/28 04:00:54;;;;;;;0.30;0.30;;;;;16.10;95822.00;;;;8242198;28;20233;-65
2023/08/28 04:05:03;;;;;;;0.30;0.30;;;;;16.10;95833.00;;;;8219344;28;21031;-65
2023/08/28 04:09:11;;;;;;;0.40;0.40;;;;;16.10;95828.00;;;;8206408;28;20549;-65
2023/08/28 04:13:14;;;;;;;0.40;0.40;;;;;16.10;95836.00;;;;8203682;28;20207;-64
2023/08/28 04:17:17;;;;;;;0.30;0.30;;;;;16.20;95846.00;;;;8213587;28;20306;-64
2023/08/28 04:21:23;;;;;;;0.40;0.40;;;;;16.20;95845.00;;;;8213632;28;20220;-64
2023/08/28 04:25:32;;;;;;;0.30;0.30;;;;;16.20;95846.00;;;;8215254;28;20195;-64
2023/08/28 04:29:35;;;;;;;0.30;0.30;;;;;16.20;95840.00;;;;8218520;28;20203;-63
2023/08/28 04:33:40;;;;;;;0.40;0.40;;;;;16.30;95842.00;;;;8211888;28;20209;-63
2023/08/28 04:37:45;;;;;;;0.30;0.30;;;;;16.30;95845.00;;;;8215295;28;20222;-63
2023/08/28 04:41:55;;;;;;;0.38;0.38;;;;;16.40;95842.00;;;;8208861;28;20604;-63
2023/08/28 04:46:00;;;;;;;0.32;0.32;;;;;16.30;95841.00;;;;8214715;28;20200;-62
2023/08/28 04:50:05;;;;;;;0.40;0.40;;;;;16.30;95836.00;;;;8218932;28;20230;-63
2023/08/28 04:54:08;;;;;;;0.30;0.30;;;;;16.30;95832.00;;;;8216813;28;20222;-62
2023/08/28 04:58:16;;;;;;;0.30;0.30;;;;;16.30;95833.00;;;;8208625;28;20211;-62
2023/08/28 05:02:21;;;;;;;0.40;0.40;;;;;16.40;95835.00;;;;8205510;28;20322;-63
2023/08/28 05:06:26;;;;;;;0.40;0.40;;;;;16.30;95838.00;;;;8205369;28;20200;-64
2023/08/28 05:10:30;;;;;;;0.30;0.30;;;;;16.20;95830.00;;;;8209935;28;20204;-64
2023/08/28 05:14:35;;;;;;;0.30;0.30;;;;;16.30;95824.00;;;;8204115;28;20225;-64
2023/08/28 05:18:41;;;;;;;0.40;0.40;;;;;16.20;95819.00;;;;8206581;28;20638;-65
2023/08/28 05:22:45;;;;;;;0.30;0.30;;;;;16.10;95835.00;;;;8209657;28;20219;-66
2023/08/28 05:26:48;;;;;;;0.40;0.40;;;;;16.00;95826.00;;;;8207809;28;20200;-65
2023/08/28 05:31:11;;;;;;;0.40;0.40;;;;;16.00;95820.00;;;;8204764;28;20659;-66
2023/08/28 05:35:15;;;;;;;0.40;0.40;;;;;15.90;95801.00;;;;8203764;28;20712;-66
2023/08/28 05:39:19;;;;;;;0.40;0.40;;;;;15.90;95807.00;;;;8208355;28;20219;-66
2023/08/28 05:43:22;;;;;;;0.57;0.57;;;;;15.90;95811.00;;;;8205466;28;20211;-67
2023/08/28 05:47:30;;;;;;;0.30;0.30;;;;;15.90;95801.00;;;;8206974;28;20681;-67
2023/08/28 05:51:34;;;;;;;0.30;0.30;;;;;15.90;95788.00;;;;8204305;28;20191;-67
2023/08/28 05:55:37;;;;;;;0.30;0.30;;;;;15.90;95786.00;;;;8205154;28;20214;-66
2023/08/28 05:59:40;;;;;;;0.50;0.50;;;;;16.00;95781.00;;;;8210899;28;21896;-66
2023/08/28 06:03:47;;;;;;;1.10;1.00;;;;;16.00;95764.00;;;;8208504;28;20885;-66
2023/08/28 06:07:51;;;;;;;0.30;0.30;;;;;16.00;95753.00;;;;8204061;28;20815;-66
2023/08/28 06:11:54;;;;;;;0.40;0.40;;;;;16.00;95763.00;;;;8209222;28;20210;-66
2023/08/28 06:15:59;;;;;;;0.52;0.52;;;;;16.00;95766.00;;;;8210835;28;20784;-66
2023/08/28 06:20:06;;;;;;;0.40;0.40;;;;;16.00;95753.00;;;;8211554;28;20226;-66
2023/08/28 06:24:09;;;;;;;0.50;0.50;;;;;16.00;95742.00;;;;8202755;28;20295;-66
2023/08/28 06:28:14;;;;;;;0.40;0.40;;;;;16.00;95735.00;;;;8205006;28;20207;-66
2023/08/28 06:32:20;;;;;;;0.88;0.88;;;;;16.00;95731.00;;;;8209465;28;20220;-67
2023/08/28 06:36:26;;;;;;;0.40;0.40;;;;;15.90;95721.00;;;;8217856;28;20198;-66
2023/08/28 06:40:29;;;;;;;0.50;0.50;;;;;15.90;95697.00;;;;8202135;28;20228;-66
2023/08/28 06:44:32;;;;;;;0.52;0.52;;;;;15.90;95693.00;;;;8201971;28;20210;-66
2023/08/28 06:48:36;;;;;;;0.55;0.55;;;;;15.90;95678.00;;;;8206228;28;20207;-66
2023/08/28 06:52:41;;;;;;;0.50;0.50;;;;;15.90;95657.00;;;;8210186;28;20294;-70
2023/08/28 06:56:44;;;;;;;0.38;0.38;;;;;15.90;95634.00;;;;8209082;28;20735;-70
2023/08/28 07:00:47;;;;;;;0.38;0.38;;;;;15.80;95647.00;;;;8208082;28;20247;-71
2023/08/28 07:04:50;;;;;;;0.43;0.43;;;;;15.90;95675.00;;;;8208644;28;20227;-68
2023/08/28 07:08:55;;;;;;;0.40;0.40;;;;;15.90;95696.00;;;;8210035;28;20203;-68
2023/08/28 07:13:00;;;;;;;0.35;0.35;;;;;15.90;95719.00;;;;8215474;28;20207;-68
2023/08/28 07:17:04;;;;;;;0.40;0.40;;;;;15.90;95729.00;;;;8215711;28;20218;-68
2023/08/28 07:21:14;;;;;;;0.40;0.40;;;;;15.90;95726.00;;;;8213122;28;20269;-68
2023/08/28 07:25:22;;;;;;;0.40;0.40;;;;;16.00;95733.00;;;;8216861;28;20314;-67
2023/08/28 07:29:29;;;;;;;0.40;0.40;;;;;16.00;95734.00;;;;8217012;28;20207;-67
2023/08/28 07:33:32;;;;;;;0.30;0.30;;;;;16.00;95725.00;;;;8219498;28;20210;-67
2023/08/28 07:37:36;;;;;;;0.47;0.47;;;;;16.00;95716.00;;;;8212490;28;20203;-68
2023/08/28 07:41:40;;;;;;;0.40;0.40;;;;;16.00;95705.00;;;;8216231;28;20238;-68
2023/08/28 07:45:46;;;;;;;0.80;0.68;;;;;16.00;95689.00;;;;8216627;28;20234;-67
2023/08/28 07:49:51;;;;;;;0.40;0.40;;;;;15.90;95676.00;;;;8218930;28;20231;-69
2023/08/28 07:53:55;;;;;;;0.40;0.40;;;;;16.00;95679.00;;;;8213611;28;20641;-67
2023/08/28 07:58:03;;;;;;;0.30;0.30;;;;;16.00;95675.00;;;;8217460;28;20286;-66
2023/08/28 08:02:07;;;;;;;0.40;0.40;;;;;16.00;95679.00;;;;8220777;28;20232;-67
2023/08/28 08:06:13;;;;;;;0.30;0.30;;;;;16.00;95689.00;;;;8217757;28;20225;-68
2023/08/28 08:10:20;;;;;;;0.30;0.30;;;;;16.00;95691.00;;;;8219736;28;20207;-69
2023/08/28 08:14:30;;;;;;;0.30;0.30;;;;;16.00;95702.00;;;;8214910;28;20287;-70
2023/08/28 08:18:35;;;;;;;0.30;0.30;;;;;16.00;95703.00;;;;8215205;28;20290;-70
2023/08/28 08:22:43;;;;;;;0.40;0.40;;;;;15.90;95693.00;;;;8214300;28;20233;-69
2023/08/28 08:26:47;;;;;;;0.50;0.50;;;;;16.00;95683.00;;;;8212997;28;20316;-68
2023/08/28 08:30:54;;;;;;;0.30;0.30;;;;;16.00;95667.00;;;;8210110;28;20199;-68
2023/08/28 08:35:00;;;;;;;1.95;1.20;;;;;16.00;95656.00;;;;8213792;28;20242;-70
2023/08/28 08:39:04;;;;;;;0.30;0.30;;;;;15.90;95643.00;;;;8216536;28;20238;-70
2023/08/28 08:43:08;;;;;;;0.30;0.30;;;;;15.90;95646.00;;;;8213626;28;20231;-69
2023/08/28 08:47:15;;;;;;;0.40;0.40;;;;;15.80;95650.00;;;;8214521;28;20207;-69
2023/08/28 08:51:25;;;;;;;0.60;0.60;;;;;15.90;95666.00;;;;8214257;28;20199;-70
2023/08/28 08:55:37;;;;;;;0.50;0.50;;;;;15.90;95684.00;;;;8212573;28;20256;-71
2023/08/28 08:59:43;;;;;;;0.40;0.40;;;;;15.90;95682.00;;;;8214670;28;20203;-67
2023/08/28 09:03:50;;;;;;;0.30;0.30;;;;;16.00;95691.00;;;;8213198;28;20226;-69
2023/08/28 09:07:57;;;;;;;0.30;0.30;;;;;16.10;95708.00;;;;8213884;28;20195;-69
2023/08/28 09:12:00;;;;;;;0.43;0.43;;;;;16.10;95692.00;;;;8216864;28;20204;-69
2023/08/28 09:16:04;;;;;;;0.40;0.40;;;;;16.00;95700.00;;;;8215686;28;20314;-69
2023/08/28 09:20:14;;;;;;;0.30;0.30;;;;;16.00;95710.00;;;;8210363;28;20818;-69
2023/08/28 09:24:22;;;;;;;0.30;0.30;;;;;16.00;95722.00;;;;8212429;28;20199;-68
2023/08/28 09:28:25;;;;;;;0.30;0.30;;;;;16.00;95731.00;;;;8215214;28;20231;-69
2023/08/28 09:32:28;;;;;;;0.40;0.40;;;;;16.00;95738.00;;;;8212990;28;20282;-71
2023/08/28 09:36:37;;;;;;;0.40;0.40;;;;;16.00;95753.00;;;;8211522;28;20208;-70
2023/08/28 09:40:50;;;;;;;0.30;0.30;;;;;16.00;95760.00;;;;8204893;28;20232;-69
2023/08/28 09:44:55;;;;;;;0.85;0.85;;;;;16.00;95783.00;;;;8202993;28;20338;-69
2023/08/28 09:48:58;;;;;;;0.30;0.30;;;;;16.10;95782.00;;;;8205811;28;20196;-68
2023/08/28 09:53:12;;;;;;;0.30;0.30;;;;;16.10;95788.00;;;;8208625;28;20207;-68
2023/08/28 09:57:17;;;;;;;0.35;0.35;;;;;16.20;95796.00;;;;8204399;28;20231;-68
2023/08/28 10:01:24;;;;;;;0.47;0.47;;;;;16.30;95777.00;;;;8206936;28;20219;-69
2023/08/28 10:05:29;;;;;;;0.30;0.30;;;;;16.40;95756.00;;;;8201635;28;20614;-69
2023/08/28 10:09:35;;;;;;;0.40;0.40;;;;;16.30;95730.00;;;;8205350;28;20846;-69
2023/08/28 10:13:38;;;;;;;0.40;0.40;;;;;16.40;95703.00;;;;8203149;28;20191;-68
2023/08/28 10:17:42;;;;;;;0.45;0.45;;;;;16.40;95684.00;;;;8205825;28;20206;-68
2023/08/28 10:21:50;;;;;;;0.32;0.32;;;;;16.30;95654.00;;;;8205058;28;20223;-68
2023/08/28 10:25:55;;;;;;;0.40;0.40;;;;;16.30;95632.00;;;;8203285;28;20295;-70
2023/08/28 10:30:00;;;;;;;0.43;0.43;;;;;16.30;95618.00;;;;8208661;28;20964;-71
2023/08/28 10:34:08;;;;;;;0.75;0.75;;;;;16.20;95613.00;;;;8203664;28;20874;-69
2023/08/28 10:38:19;;;;;;;0.40;0.40;;;;;16.20;95602.00;;;;8204268;28;20765;-72
2023/08/28 10:42:34;;;;;;;0.40;0.40;;;;;16.40;95569.00;;;;8203967;28;20315;-70
2023/08/28 10:46:39;;;;;;;0.40;0.40;;;;;17.00;95547.00;;;;8202441;28;20209;-70
2023/08/28 10:50:46;;;;;;;0.47;0.47;;;;;17.10;95551.00;;;;8203223;28;20199;-71
2023/08/28 10:54:51;;;;;;;0.43;0.43;;;;;17.60;95550.00;;;;8200455;28;20227;-72
2023/08/28 10:59:30;;;;;;;0.40;0.40;;;;;17.90;95548.00;;;;8201198;28;20553;-72
2023/08/28 11:03:58;;;;;;;0.73;0.73;;;;;18.10;95532.00;;;;8201672;28;20854;-71
2023/08/28 11:08:04;;;;;;;0.40;0.40;;;;;17.80;95563.00;;;;8212799;28;20211;-71
2023/08/28 11:12:29;;;;;;;0.50;0.50;;;;;17.90;95566.00;;;;8202654;28;20291;-70
2023/08/28 11:16:39;;;;;;;0.30;0.30;;;;;17.90;95571.00;;;;8206936;28;20257;-71
2023/08/28 11:20:47;;;;;;;0.75;0.75;;;;;17.60;95587.00;;;;8210882;28;20199;-69
2023/08/28 11:24:53;;;;;;;0.35;0.35;;;;;17.50;95584.00;;;;8207674;28;20700;-70
2023/08/28 11:28:57;;;;;;;0.32;0.32;;;;;17.60;95583.00;;;;8206436;28;20977;-69
2023/08/28 11:33:02;;;;;;;0.30;0.30;;;;;17.80;95562.00;;;;8201686;28;20279;-68
2023/08/28 11:37:07;;;;;;;0.40;0.40;;;;;18.00;95540.00;;;;8209858;28;21040;-68
2023/08/28 11:41:14;;;;;;;0.40;0.40;;;;;18.60;95564.00;;;;8214286;28;20282;-68
2023/08/28 11:45:20;;;;;;;5.00;1.25;;;;;18.70;95574.00;;;;8212648;28;20204;-68
2023/08/28 11:49:28;;;;;;;0.30;0.30;;;;;18.30;95567.00;;;;8213705;28;20204;-68
2023/08/28 11:53:37;;;;;;;0.30;0.30;;;;;18.10;95589.00;;;;8213271;28;20199;-68
2023/08/28 11:57:40;;;;;;;0.40;0.40;;;;;18.10;95586.00;;;;8214010;28;20203;-69
2023/08/28 12:01:47;;;;;;;0.57;0.57;;;;;18.10;95598.00;;;;8196096;28;20234;-68
2023/08/28 12:05:50;;;;;;;0.30;0.30;;;;;18.00;95599.00;;;;8206288;28;20221;-69
2023/08/28 12:09:55;;;;;;;0.60;0.60;;;;;17.90;95590.00;;;;8207809;28;20214;-69
2023/08/28 12:14:01;;;;;;;0.30;0.30;;;;;17.80;95591.00;;;;8214413;28;20291;-69
2023/08/28 12:18:06;;;;;;;0.30;0.30;;;;;17.80;95583.00;;;;8214713;28;20226;-69
2023/08/28 12:22:11;;;;;;;0.40;0.40;;;;;17.70;95587.00;;;;8209837;28;20260;-69
2023/08/28 12:26:20;;;;;;;0.40;0.40;;;;;17.80;95577.00;;;;8203133;28;20977;-69
2023/08/28 12:30:26;;;;;;;0.35;0.35;;;;;18.00;95577.00;;;;8213449;28;20671;-69
2023/08/28 12:34:33;;;;;;;0.40;0.40;;;;;18.10;95555.00;;;;8210906;28;20204;-69
2023/08/28 12:38:49;;;;;;;0.50;0.50;;;;;18.20;95562.00;;;;8205980;28;20234;-69
2023/08/28 12:43:02;;;;;;;0.50;0.50;;;;;18.10;95564.00;;;;8207688;28;20232;-69
2023/08/28 12:47:08;;;;;;;0.43;0.43;;;;;18.10;95572.00;;;;8208450;28;20821;-69
2023/08/28 12:51:11;;;;;;;0.30;0.30;;;;;18.00;95538.00;;;;8207092;28;20216;-70
2023/08/28 12:55:15;;;;;;;0.40;0.40;;;;;17.90;95535.00;;;;8204654;28;20251;-71
2023/08/28 12:59:22;;;;;;;0.40;0.40;;;;;17.80;95542.00;;;;8213388;28;20199;-73
2023/08/28 13:03:27;;;;;;;0.50;0.50;;;;;17.70;95539.00;;;;8209874;28;20361;-72
2023/08/28 13:07:32;;;;;;;0.50;0.50;;;;;17.50;95546.00;;;;8210168;28;20617;-73
2023/08/28 13:11:41;;;;;;;0.40;0.40;;;;;17.50;95547.00;;;;8203981;28;20257;-72
2023/08/28 13:15:47;;;;;;;0.60;0.60;;;;;17.40;95530.00;;;;8205659;28;20211;-73
2023/08/28 13:19:51;;;;;;;0.38;0.38;;;;;17.30;95534.00;;;;8204714;28;20864;-73
2023/08/28 13:23:58;;;;;;;0.40;0.40;;;;;17.20;95531.00;;;;8210623;28;20234;-74
2023/08/28 13:28:04;;;;;;;0.55;0.55;;;;;17.10;95545.00;;;;8205789;28;20208;-72
2023/08/28 13:32:09;;;;;;;0.32;0.32;;;;;17.00;95549.00;;;;8206407;28;20890;-73
2023/08/28 13:36:18;;;;;;;0.40;0.40;;;;;17.00;95548.00;;;;8200758;28;20262;-74
2023/08/28 13:40:22;;;;;;;0.40;0.40;;;;;17.00;95546.00;;;;8206743;28;20238;-74
2023/08/28 13:44:28;;;;;;;0.32;0.32;;;;;17.00;95540.00;;;;8206730;28;20227;-74
2023/08/28 13:48:38;;;;;;;0.40;0.40;;;;;16.90;95550.00;;;;8206347;28;20200;-74
2023/08/28 13:52:45;;;;;;;0.40;0.40;;;;;16.80;95538.00;;;;8215289;28;20320;-74
2023/08/28 13:56:51;;;;;;;0.50;0.50;;;;;16.50;95542.00;;;;8217375;28;20248;-73
2023/08/28 14:00:59;;;;;;;0.30;0.30;;;;;16.30;95530.00;;;;8216413;28;20698;-71
2023/08/28 14:05:06;;;;;;;0.85;0.65;;;;;16.10;95541.00;;;;8219419;28;20236;-68
2023/08/28 14:09:11;;;;;;;0.35;0.35;;;;;15.90;95533.00;;;;8214894;28;20203;-74
2023/08/28 14:13:17;;;;;;;0.40;0.40;;;;;15.70;95537.00;;;;8215579;28;20207;-74
2023/08/28 14:17:20;;;;;;;0.43;0.43;;;;;15.50;95554.00;;;;8213275;28;20314;-74
2023/08/28 14:21:26;;;;;;;0.40;0.40;;;;;15.30;95536.00;;;;8213971;28;20290;-76
2023/08/28 14:25:30;;;;;;;0.40;0.40;;;;;15.30;95530.00;;;;8213934;28;20929;-79
2023/08/28 14:29:35;;;;;;;0.57;0.57;;;;;15.20;95533.00;;;;8216159;28;20229;-75
2023/08/28 14:33:40;;;;;;;0.88;0.88;;;;;15.20;95527.00;;;;8206498;28;20208;-71
2023/08/28 14:37:49;;;;;;;0.40;0.40;;;;;15.20;95528.00;;;;8206825;28;20207;-71
2023/08/28 14:41:53;;;;;;;0.40;0.40;;;;;15.20;95518.00;;;;8217096;28;20630;-70
2023/08/28 14:45:57;;;;;;;0.40;0.40;;;;;15.30;95522.00;;;;8213980;28;20351;-72
2023/08/28 14:50:03;;;;;;;0.40;0.40;;;;;15.30;95528.00;;;;8211776;28;20208;-73
2023/08/28 14:54:08;;;;;;;0.40;0.40;;;;;15.20;95523.00;;;;8215679;28;20227;-73
2023/08/28 14:58:13;;;;;;;1.05;1.05;;;;;15.20;95517.00;;;;8203789;28;21084;-74
2023/08/28 15:02:20;;;;;;;0.55;0.55;;;;;15.10;95536.00;;;;8209310;28;20266;-73
2023/08/28 15:06:24;;;;;;;0.30;0.30;;;;;15.10;95565.00;;;;8212914;28;20199;-73
2023/08/28 15:10:31;;;;;;;0.40;0.40;;;;;15.10;95576.00;;;;8216157;28;20199;-74
2023/08/28 15:14:38;;;;;;;0.50;0.50;;;;;15.00;95584.00;;;;8222751;28;20203;-73
2023/08/28 15:18:42;;;;;;;0.40;0.40;;;;;15.00;95571.00;;;;8217842;28;20290;-70
2023/08/28 15:22:45;;;;;;;0.50;0.50;;;;;15.00;95567.00;;;;8225523;28;20318;-72
2023/08/28 15:26:50;;;;;;;0.30;0.30;;;;;14.90;95534.00;;;;8220327;28;20706;-72
2023/08/28 15:30:57;;;;;;;0.40;0.40;;;;;14.90;95534.00;;;;8218442;28;20203;-73
2023/08/28 15:35:01;;;;;;;0.30;0.30;;;;;14.90;95521.00;;;;8232738;28;20258;-73
2023/08/28 15:39:05;;;;;;;0.40;0.40;;;;;14.80;95513.00;;;;8220770;28;20296;-71
2023/08/28 15:43:16;;;;;;;3.00;1.20;;;;;14.90;95480.00;;;;8224900;28;20274;-73
2023/08/28 15:47:19;;;;;;;0.70;0.70;;;;;14.80;95485.00;;;;8214972;28;20200;-73
2023/08/28 15:51:25;;;;;;;0.40;0.40;;;;;14.80;95483.00;;;;8224577;28;20935;-74
2023/08/28 15:55:28;;;;;;;0.40;0.40;;;;;14.80;95498.00;;;;8215751;28;20215;-75
2023/08/28 15:59:35;;;;;;;0.40;0.40;;;;;14.80;95501.00;;;;8216203;28;20203;-74
2023/08/28 16:03:42;;;;;;;0.40;0.40;;;;;14.70;95514.00;;;;8216378;28;20238;-74
2023/08/28 16:07:45;;;;;;;0.50;0.50;;;;;14.70;95506.00;;;;8214041;28;20207;-73
2023/08/28 16:11:52;;;;;;;0.40;0.40;;;;;14.60;95507.00;;;;8218605;28;20204;-75
2023/08/28 16:15:59;;;;;;;0.50;0.50;;;;;14.60;95516.00;;;;8221555;28;20717;-71
2023/08/28 16:20:04;;;;;;;0.40;0.40;;;;;14.70;95496.00;;;;8215614;28;20207;-72
2023/08/28 16:24:11;;;;;;;4.28;1.75;;;;;14.70;95494.00;;;;8218318;28;20665;-72
2023/08/28 16:28:14;;;;;;;0.50;0.50;;;;;14.70;95484.00;;;;8214880;28;20227;-71
2023/08/28 16:32:19;;;;;;;0.30;0.30;;;;;14.70;95476.00;;;;8221892;28;20242;-71
2023/08/28 16:36:22;;;;;;;0.40;0.40;;;;;14.70;95484.00;;;;8219339;28;20214;-70
2023/08/28 16:40:29;;;;;;;0.40;0.40;;;;;14.70;95489.00;;;;8217821;28;20214;-70
2023/08/28 16:44:34;;;;;;;0.70;0.70;;;;;14.70;95512.00;;;;8219908;28;20223;-70
2023/08/28 16:48:39;;;;;;;0.47;0.47;;;;;14.70;95512.00;;;;8217869;28;20207;-69
2023/08/28 16:52:43;;;;;;;0.40;0.40;;;;;14.70;95517.00;;;;8208781;28;20199;-69
2023/08/28 16:56:54;;;;;;;0.40;0.40;;;;;14.60;95509.00;;;;8211548;28;20203;-68
2023/08/28 17:01:06;;;;;;;0.30;0.30;;;;;14.60;95503.00;;;;8209566;28;20234;-69
2023/08/28 17:05:10;;;;;;;0.43;0.43;;;;;14.60;95489.00;;;;8215039;28;20235;-68
2023/08/28 17:09:19;;;;;;;0.40;0.40;;;;;14.60;95491.00;;;;8208513;28;20211;-69
2023/08/28 17:13:22;;;;;;;0.40;0.40;;;;;14.60;95490.00;;;;8210850;28;20278;-68
2023/08/28 17:17:26;;;;;;;0.57;0.57;;;;;14.50;95512.00;;;;8208590;28;20601;-68
2023/08/28 17:21:31;;;;;;;0.43;0.43;;;;;14.50;95502.00;;;;8216385;28;20258;-68
2023/08/28 17:25:35;;;;;;;0.40;0.40;;;;;14.50;95497.00;;;;8209991;28;20267;-68
2023/08/28 17:29:38;;;;;;;0.40;0.40;;;;;14.40;95488.00;;;;8211834;28;20645;-67
2023/08/28 17:33:46;;;;;;;0.40;0.40;;;;;14.40;95500.00;;;;8212516;28;20195;-67
2023/08/28 17:37:51;;;;;;;0.70;0.70;;;;;14.40;95511.00;;;;8213442;28;20203;-68
2023/08/28 17:41:57;;;;;;;0.30;0.30;;;;;14.40;95517.00;;;;8212451;28;20318;-68
2023/08/28 17:46:00;;;;;;;0.68;0.68;;;;;14.40;95516.00;;;;8217383;28;20231;-67
2023/08/28 17:50:08;;;;;;;0.30;0.30;;;;;14.30;95520.00;;;;8220860;28;20262;-68
2023/08/28 17:54:18;;;;;;;0.50;0.50;;;;;14.30;95516.00;;;;8211886;28;20191;-68
2023/08/28 17:58:24;;;;;;;0.40;0.40;;;;;14.30;95525.00;;;;8214388;28;20230;-68
2023/08/28 18:02:27;;;;;;;0.30;0.30;;;;;14.20;95539.00;;;;8213631;28;20322;-67
2023/08/28 18:06:50;;;;;;;0.47;0.47;;;;;14.20;95523.00;;;;8211784;28;20258;-67
2023/08/28 18:10:56;;;;;;;0.82;0.82;;;;;14.10;95525.00;;;;8213576;28;20731;-68
2023/08/28 18:15:01;;;;;;;0.80;0.80;;;;;14.10;95514.00;;;;8216903;28;20207;-68
2023/08/28 18:19:05;;;;;;;0.30;0.30;;;;;14.00;95502.00;;;;8213768;28;20204;-68
2023/08/28 18:23:09;;;;;;;0.47;0.47;;;;;14.00;95510.00;;;;8212818;28;20245;-68
2023/08/28 18:27:17;;;;;;;0.40;0.40;;;;;13.90;95513.00;;;;8212726;28;20235;-67
2023/08/28 18:31:24;;;;;;;0.95;0.95;;;;;13.90;95531.00;;;;8207514;28;20211;-68
2023/08/28 18:35:27;;;;;;;0.30;0.30;;;;;13.80;95547.00;;;;8210839;28;20202;-68
2023/08/28 18:39:34;;;;;;;0.40;0.40;;;;;13.80;95551.00;;;;8211435;28;20563;-68
2023/08/28 18:43:38;;;;;;;0.40;0.40;;;;;13.80;95541.00;;;;8215750;28;20778;-68
2023/08/28 18:47:41;;;;;;;0.63;0.63;;;;;13.80;95543.00;;;;8227028;28;20208;-68
2023/08/28 18:51:47;;;;;;;0.40;0.40;;;;;13.80;95538.00;;;;8221305;28;20191;-67
2023/08/28 18:55:55;;;;;;;0.90;0.90;;;;;13.70;95539.00;;;;8226463;28;20354;-68
2023/08/28 19:00:00;;;;;;;0.65;0.65;;;;;13.70;95535.00;;;;8219988;28;20258;-68
2023/08/28 19:04:04;;;;;;;0.40;0.40;;;;;13.60;95534.00;;;;8223665;28;20282;-68
2023/08/28 19:08:07;;;;;;;0.60;0.60;;;;;13.50;95551.00;;;;8218380;28;20207;-69
2023/08/28 19:12:10;;;;;;;0.50;0.50;;;;;13.50;95570.00;;;;8221668;28;20207;-68
2023/08/28 19:16:15;;;;;;;0.60;0.60;;;;;13.50;95574.00;;;;8221895;28;20291;-68
2023/08/28 19:20:19;;;;;;;0.30;0.30;;;;;13.50;95569.00;;;;8225585;28;20768;-68
2023/08/28 19:24:23;;;;;;;0.40;0.40;;;;;13.40;95568.00;;;;8218808;28;20239;-69
2023/08/28 19:28:29;;;;;;;0.40;0.40;;;;;13.40;95561.00;;;;8228678;28;20202;-68
2023/08/28 19:32:38;;;;;;;0.50;0.50;;;;;13.40;95562.00;;;;8230413;28;20199;-69
2023/08/28 19:36:41;;;;;;;0.40;0.40;;;;;13.40;95549.00;;;;8230398;28;20693;-68
2023/08/28 19:40:45;;;;;;;0.50;0.50;;;;;13.30;95533.00;;;;8224677;28;20298;-69
2023/08/28 19:44:52;;;;;;;1.35;1.25;;;;;13.30;95536.00;;;;8218372;28;20942;-68
2023/08/28 19:48:56;;;;;;;0.40;0.40;;;;;13.30;95534.00;;;;8228254;28;20279;-68
2023/08/28 19:53:00;;;;;;;0.30;0.30;;;;;13.30;95546.00;;;;8224861;28;20210;-68
2023/08/28 19:57:09;;;;;;;0.40;0.40;;;;;13.20;95540.00;;;;8224186;28;20211;-68
2023/08/28 20:01:15;;;;;;;0.30;0.30;;;;;13.20;95547.00;;;;8224745;28;20207;-68
2023/08/28 20:05:20;;;;;;;0.40;0.40;;;;;13.20;95548.00;;;;8221259;28;20792;-67
2023/08/28 20:09:26;;;;;;;0.40;0.40;;;;;13.30;95551.00;;;;8229696;28;20249;-68
2023/08/28 20:13:29;;;;;;;5.95;3.78;;;;;13.30;95552.00;;;;8223824;28;20761;-68
2023/08/28 20:17:35;;;;;;;3.33;3.03;;;;;13.30;95547.00;;;;8226491;28;20210;-68
2023/08/28 20:21:45;;;;;;;8.13;5.35;;;;;13.30;95546.00;;;;8232309;28;20203;-68
2023/08/28 20:25:58;;;;;;;6.30;4.47;;;;;13.30;95537.00;;;;8228004;28;20766;-68
2023/08/28 20:30:03;;;;;;;8.68;5.28;;;;;13.40;95535.00;;;;8221669;28;20299;-68
2023/08/28 20:34:11;;;;;;;4.47;3.58;;;;;13.40;95542.00;;;;8220115;28;20210;-67